sensor_id;sensor_type;location;lat;lon;timestamp;P1;durP1;ratioP1;P2;durP2;ratioP2
51515;SDS011;37603;55.614;37.326;2023-07-20T00:04:26;4.7;;;1.3;;
51515;SDS011;37603;55.614;37.326;2023-07-20T00:10:25;3.4;;;1.3;;
51515;SDS011;37603;55.614;37.326;2023-07-20T00:16:25;4.9;;;1.4;;
51515;SDS011;37603;55.614;37.326;2023-07-20T00:22:24;3.4;;;1.4;;
51515;SDS011;37603;55.614;37.326;2023-07-20T00:28:23;3.8;;;1.5;;
51515;SDS011;37603;55.614;37.326;2023-07-20T00:34:23;4.3;;;1.2;;
51515;SDS011;37603;55.614;37.326;2023-07-20T00:40:22;3.6;;;1.4;;
51515;SDS011;37603;55.614;37.326;2023-07-20T00:46:22;4.0;;;1.4;;
51515;SDS011;37603;55.614;37.326;2023-07-20T00:52:21;3.0;;;1.5;;
51515;SDS011;37603;55.614;37.326;2023-07-20T00:58:20;2.6;;;1.4;;
51515;SDS011;37603;55.614;37.326;2023-07-20T01:04:20;3.1;;;1.6;;
51515;SDS011;37603;55.614;37.326;2023-07-20T01:10:20;4.3;;;1.5;;
51515;SDS011;37603;55.614;37.326;2023-07-20T01:16:18;3.6;;;1.7;;
51515;SDS011;37603;55.614;37.326;2023-07-20T01:22:21;2.9;;;1.5;;
51515;SDS011;37603;55.614;37.326;2023-07-20T01:28:26;3.5;;;1.6;;
51515;SDS011;37603;55.614;37.326;2023-07-20T01:34:17;3.6;;;1.7;;
51515;SDS011;37603;55.614;37.326;2023-07-20T01:40:16;6.3;;;1.8;;
51515;SDS011;37603;55.614;37.326;2023-07-20T01:46:15;3.5;;;1.8;;
51515;SDS011;37603;55.614;37.326;2023-07-20T01:52:14;3.8;;;2.0;;
51515;SDS011;37603;55.614;37.326;2023-07-20T01:58:13;3.1;;;1.7;;
51515;SDS011;37603;55.614;37.326;2023-07-20T02:04:13;3.2;;;1.7;;
51515;SDS011;37603;55.614;37.326;2023-07-20T02:10:12;4.0;;;1.7;;
51515;SDS011;37603;55.614;37.326;2023-07-20T02:16:11;2.9;;;1.5;;
51515;SDS011;37603;55.614;37.326;2023-07-20T02:22:10;2.7;;;1.2;;
51515;SDS011;37603;55.614;37.326;2023-07-20T02:28:10;3.5;;;1.4;;
51515;SDS011;37603;55.614;37.326;2023-07-20T02:34:09;3.7;;;1.3;;
51515;SDS011;37603;55.614;37.326;2023-07-20T02:40:09;3.1;;;1.3;;
51515;SDS011;37603;55.614;37.326;2023-07-20T02:46:08;2.8;;;1.2;;
51515;SDS011;37603;55.614;37.326;2023-07-20T02:52:07;2.7;;;1.2;;
51515;SDS011;37603;55.614;37.326;2023-07-20T02:58:06;3.7;;;1.2;;
51515;SDS011;37603;55.614;37.326;2023-07-20T03:04:06;2.4;;;1.3;;
51515;SDS011;37603;55.614;37.326;2023-07-20T03:10:05;3.1;;;1.3;;
51515;SDS011;37603;55.614;37.326;2023-07-20T03:16:04;3.3;;;1.3;;
51515;SDS011;37603;55.614;37.326;2023-07-20T03:22:04;4.7;;;1.4;;
51515;SDS011;37603;55.614;37.326;2023-07-20T03:28:03;4.6;;;1.3;;
51515;SDS011;37603;55.614;37.326;2023-07-20T03:34:02;3.0;;;1.2;;
51515;SDS011;37603;55.614;37.326;2023-07-20T03:40:04;3.7;;;1.2;;
51515;SDS011;37603;55.614;37.326;2023-07-20T03:46:01;2.1;;;1.1;;
51515;SDS011;37603;55.614;37.326;2023-07-20T03:52:00;2.5;;;1.4;;
51515;SDS011;37603;55.614;37.326;2023-07-20T03:58:00;3.6;;;1.3;;
51515;SDS011;37603;55.614;37.326;2023-07-20T04:03:59;4.8;;;1.3;;
51515;SDS011;37603;55.614;37.326;2023-07-20T04:09:58;2.4;;;1.3;;
51515;SDS011;37603;55.614;37.326;2023-07-20T04:15:58;1.5;;;1.2;;
51515;SDS011;37603;55.614;37.326;2023-07-20T04:21:57;2.4;;;1.2;;
51515;SDS011;37603;55.614;37.326;2023-07-20T04:27:57;3.2;;;1.2;;
51515;SDS011;37603;55.614;37.326;2023-07-20T04:33:56;2.2;;;1.0;;
51515;SDS011;37603;55.614;37.326;2023-07-20T04:39:55;2.7;;;1.1;;
51515;SDS011;37603;55.614;37.326;2023-07-20T04:45:55;3.5;;;1.2;;
51515;SDS011;37603;55.614;37.326;2023-07-20T04:51:54;3.6;;;1.3;;
51515;SDS011;37603;55.614;37.326;2023-07-20T04:57:54;4.6;;;2.6;;
51515;SDS011;37603;55.614;37.326;2023-07-20T05:03:53;3.7;;;1.6;;
51515;SDS011;37603;55.614;37.326;2023-07-20T05:09:53;7.8;;;5.0;;
51515;SDS011;37603;55.614;37.326;2023-07-20T05:15:53;2.2;;;1.5;;
51515;SDS011;37603;55.614;37.326;2023-07-20T05:21:52;5.8;;;3.8;;
51515;SDS011;37603;55.614;37.326;2023-07-20T05:27:52;2.1;;;0.8;;
51515;SDS011;37603;55.614;37.326;2023-07-20T05:33:51;2.2;;;0.7;;
51515;SDS011;37603;55.614;37.326;2023-07-20T05:39:51;5.6;;;2.5;;
51515;SDS011;37603;55.614;37.326;2023-07-20T05:45:51;2.3;;;0.8;;
51515;SDS011;37603;55.614;37.326;2023-07-20T05:51:50;5.8;;;0.9;;
51515;SDS011;37603;55.614;37.326;2023-07-20T05:57:50;9.6;;;6.0;;
51515;SDS011;37603;55.614;37.326;2023-07-20T06:03:50;2.1;;;0.9;;
51515;SDS011;37603;55.614;37.326;2023-07-20T06:09:49;4.3;;;0.8;;
51515;SDS011;37603;55.614;37.326;2023-07-20T06:15:49;3.9;;;1.9;;
51515;SDS011;37603;55.614;37.326;2023-07-20T06:21:49;10.3;;;7.4;;
51515;SDS011;37603;55.614;37.326;2023-07-20T06:27:49;2.7;;;1.6;;
51515;SDS011;37603;55.614;37.326;2023-07-20T06:33:48;1.3;;;0.7;;
51515;SDS011;37603;55.614;37.326;2023-07-20T06:39:48;2.2;;;0.6;;
51515;SDS011;37603;55.614;37.326;2023-07-20T06:45:50;2.8;;;1.0;;
51515;SDS011;37603;55.614;37.326;2023-07-20T06:51:48;3.3;;;1.0;;
51515;SDS011;37603;55.614;37.326;2023-07-20T06:57:47;1.8;;;0.8;;
51515;SDS011;37603;55.614;37.326;2023-07-20T07:03:47;3.8;;;1.1;;
51515;SDS011;37603;55.614;37.326;2023-07-20T07:09:47;2.5;;;0.8;;
51515;SDS011;37603;55.614;37.326;2023-07-20T07:15:47;5.7;;;1.1;;
51515;SDS011;37603;55.614;37.326;2023-07-20T07:21:47;1.7;;;1.0;;
51515;SDS011;37603;55.614;37.326;2023-07-20T07:27:46;4.7;;;1.6;;
51515;SDS011;37603;55.614;37.326;2023-07-20T07:33:46;4.3;;;2.4;;
51515;SDS011;37603;55.614;37.326;2023-07-20T07:39:46;3.8;;;2.8;;
51515;SDS011;37603;55.614;37.326;2023-07-20T07:45:46;3.1;;;1.2;;
51515;SDS011;37603;55.614;37.326;2023-07-20T07:51:46;2.9;;;0.8;;
51515;SDS011;37603;55.614;37.326;2023-07-20T07:57:46;2.5;;;1.3;;
51515;SDS011;37603;55.614;37.326;2023-07-20T08:03:46;1.7;;;1.3;;
51515;SDS011;37603;55.614;37.326;2023-07-20T08:09:46;2.2;;;1.0;;
51515;SDS011;37603;55.614;37.326;2023-07-20T08:15:48;2.0;;;0.7;;
51515;SDS011;37603;55.614;37.326;2023-07-20T08:21:45;3.7;;;1.8;;
51515;SDS011;37603;55.614;37.326;2023-07-20T08:27:45;3.6;;;0.9;;
51515;SDS011;37603;55.614;37.326;2023-07-20T08:33:45;2.9;;;1.2;;
51515;SDS011;37603;55.614;37.326;2023-07-20T08:39:45;3.7;;;2.2;;
51515;SDS011;37603;55.614;37.326;2023-07-20T08:45:45;3.2;;;1.6;;
51515;SDS011;37603;55.614;37.326;2023-07-20T08:51:45;1.5;;;0.9;;
51515;SDS011;37603;55.614;37.326;2023-07-20T08:57:44;2.7;;;1.5;;
51515;SDS011;37603;55.614;37.326;2023-07-20T09:03:45;2.2;;;1.5;;
51515;SDS011;37603;55.614;37.326;2023-07-20T09:09:44;2.8;;;1.4;;
51515;SDS011;37603;55.614;37.326;2023-07-20T09:15:45;2.4;;;1.2;;
51515;SDS011;37603;55.614;37.326;2023-07-20T09:21:44;2.6;;;1.2;;
51515;SDS011;37603;55.614;37.326;2023-07-20T09:27:45;2.3;;;1.1;;
51515;SDS011;37603;55.614;37.326;2023-07-20T09:33:44;2.1;;;1.1;;
51515;SDS011;37603;55.614;37.326;2023-07-20T09:39:44;3.3;;;1.2;;
51515;SDS011;37603;55.614;37.326;2023-07-20T09:45:43;2.5;;;1.1;;
51515;SDS011;37603;55.614;37.326;2023-07-20T09:51:43;4.9;;;1.7;;
51515;SDS011;37603;55.614;37.326;2023-07-20T09:57:43;3.7;;;1.1;;
51515;SDS011;37603;55.614;37.326;2023-07-20T10:03:43;4.3;;;1.2;;
51515;SDS011;37603;55.614;37.326;2023-07-20T10:09:43;3.5;;;1.5;;
51515;SDS011;37603;55.614;37.326;2023-07-20T10:15:45;3.8;;;1.4;;
51515;SDS011;37603;55.614;37.326;2023-07-20T10:21:45;5.8;;;1.5;;
51515;SDS011;37603;55.614;37.326;2023-07-20T10:27:42;4.0;;;2.0;;
51515;SDS011;37603;55.614;37.326;2023-07-20T10:33:45;2.9;;;1.3;;
51515;SDS011;37603;55.614;37.326;2023-07-20T10:39:42;2.3;;;1.3;;
51515;SDS011;37603;55.614;37.326;2023-07-20T10:45:42;3.6;;;1.4;;
51515;SDS011;37603;55.614;37.326;2023-07-20T10:51:42;2.5;;;1.2;;
51515;SDS011;37603;55.614;37.326;2023-07-20T10:57:42;3.8;;;1.3;;
51515;SDS011;37603;55.614;37.326;2023-07-20T11:03:41;3.6;;;1.2;;
51515;SDS011;37603;55.614;37.326;2023-07-20T11:09:41;3.7;;;1.5;;
51515;SDS011;37603;55.614;37.326;2023-07-20T11:21:42;3.9;;;1.5;;
51515;SDS011;37603;55.614;37.326;2023-07-20T11:27:46;2.5;;;1.0;;
51515;SDS011;37603;55.614;37.326;2023-07-20T11:33:41;3.7;;;1.4;;
51515;SDS011;37603;55.614;37.326;2023-07-20T11:39:40;3.4;;;1.3;;
51515;SDS011;37603;55.614;37.326;2023-07-20T11:45:40;3.2;;;1.5;;
51515;SDS011;37603;55.614;37.326;2023-07-20T11:51:40;3.7;;;1.3;;
51515;SDS011;37603;55.614;37.326;2023-07-20T11:57:40;2.7;;;1.2;;
51515;SDS011;37603;55.614;37.326;2023-07-20T12:03:41;3.7;;;1.5;;
51515;SDS011;37603;55.614;37.326;2023-07-20T12:09:40;3.3;;;1.8;;
51515;SDS011;37603;55.614;37.326;2023-07-20T12:15:39;4.5;;;1.7;;
51515;SDS011;37603;55.614;37.326;2023-07-20T12:21:40;4.4;;;1.6;;
51515;SDS011;37603;55.614;37.326;2023-07-20T12:27:39;3.0;;;1.2;;
51515;SDS011;37603;55.614;37.326;2023-07-20T12:33:38;3.7;;;1.9;;
51515;SDS011;37603;55.614;37.326;2023-07-20T12:39:38;2.5;;;1.5;;
51515;SDS011;37603;55.614;37.326;2023-07-20T12:45:37;3.9;;;1.9;;
51515;SDS011;37603;55.614;37.326;2023-07-20T12:51:38;5.6;;;3.6;;
51515;SDS011;37603;55.614;37.326;2023-07-20T12:57:37;5.1;;;2.8;;
51515;SDS011;37603;55.614;37.326;2023-07-20T13:03:36;5.2;;;2.6;;
51515;SDS011;37603;55.614;37.326;2023-07-20T13:09:36;6.8;;;2.4;;
51515;SDS011;37603;55.614;37.326;2023-07-20T13:15:41;5.5;;;2.5;;
51515;SDS011;37603;55.614;37.326;2023-07-20T13:21:35;5.7;;;2.3;;
51515;SDS011;37603;55.614;37.326;2023-07-20T13:27:35;5.1;;;1.9;;
51515;SDS011;37603;55.614;37.326;2023-07-20T13:33:35;5.6;;;2.2;;
51515;SDS011;37603;55.614;37.326;2023-07-20T13:39:35;3.8;;;1.8;;
51515;SDS011;37603;55.614;37.326;2023-07-20T13:45:34;4.4;;;1.7;;
51515;SDS011;37603;55.614;37.326;2023-07-20T13:51:34;4.3;;;2.0;;
51515;SDS011;37603;55.614;37.326;2023-07-20T13:57:34;4.9;;;2.3;;
51515;SDS011;37603;55.614;37.326;2023-07-20T14:03:33;4.2;;;2.2;;
51515;SDS011;37603;55.614;37.326;2023-07-20T14:09:33;2.7;;;1.6;;
51515;SDS011;37603;55.614;37.326;2023-07-20T14:15:33;5.9;;;3.3;;
51515;SDS011;37603;55.614;37.326;2023-07-20T14:21:32;4.7;;;1.8;;
51515;SDS011;37603;55.614;37.326;2023-07-20T14:27:32;2.9;;;1.3;;
51515;SDS011;37603;55.614;37.326;2023-07-20T14:33:32;2.2;;;1.3;;
51515;SDS011;37603;55.614;37.326;2023-07-20T14:39:32;3.5;;;1.1;;
51515;SDS011;37603;55.614;37.326;2023-07-20T14:45:31;3.0;;;1.2;;
51515;SDS011;37603;55.614;37.326;2023-07-20T15:03:31;3.7;;;1.2;;
51515;SDS011;37603;55.614;37.326;2023-07-20T15:09:31;2.6;;;1.1;;
51515;SDS011;37603;55.614;37.326;2023-07-20T15:15:30;3.3;;;1.2;;
51515;SDS011;37603;55.614;37.326;2023-07-20T15:21:30;2.4;;;0.9;;
51515;SDS011;37603;55.614;37.326;2023-07-20T15:27:30;2.9;;;1.3;;
51515;SDS011;37603;55.614;37.326;2023-07-20T15:33:29;2.5;;;1.0;;
51515;SDS011;37603;55.614;37.326;2023-07-20T15:39:29;3.0;;;1.2;;
51515;SDS011;37603;55.614;37.326;2023-07-20T15:45:29;2.4;;;1.2;;
51515;SDS011;37603;55.614;37.326;2023-07-20T15:51:28;2.5;;;1.0;;
51515;SDS011;37603;55.614;37.326;2023-07-20T15:57:28;2.9;;;1.2;;
51515;SDS011;37603;55.614;37.326;2023-07-20T16:03:28;3.9;;;1.2;;
51515;SDS011;37603;55.614;37.326;2023-07-20T16:09:28;2.1;;;1.1;;
51515;SDS011;37603;55.614;37.326;2023-07-20T16:15:27;2.4;;;1.3;;
51515;SDS011;37603;55.614;37.326;2023-07-20T16:21:27;3.2;;;1.2;;
51515;SDS011;37603;55.614;37.326;2023-07-20T16:27:27;2.8;;;1.3;;
51515;SDS011;37603;55.614;37.326;2023-07-20T16:33:26;4.8;;;1.8;;
51515;SDS011;37603;55.614;37.326;2023-07-20T16:39:26;4.3;;;1.7;;
51515;SDS011;37603;55.614;37.326;2023-07-20T16:45:26;4.1;;;1.6;;
51515;SDS011;37603;55.614;37.326;2023-07-20T16:51:26;3.1;;;1.7;;
51515;SDS011;37603;55.614;37.326;2023-07-20T16:57:25;4.0;;;1.7;;
51515;SDS011;37603;55.614;37.326;2023-07-20T17:03:25;5.3;;;1.9;;
51515;SDS011;37603;55.614;37.326;2023-07-20T17:09:25;3.2;;;1.9;;
51515;SDS011;37603;55.614;37.326;2023-07-20T17:15:24;4.8;;;2.3;;
51515;SDS011;37603;55.614;37.326;2023-07-20T17:21:24;6.1;;;1.9;;
51515;SDS011;37603;55.614;37.326;2023-07-20T17:33:23;6.6;;;2.4;;
51515;SDS011;37603;55.614;37.326;2023-07-20T17:39:23;6.3;;;3.5;;
51515;SDS011;37603;55.614;37.326;2023-07-20T17:45:23;7.0;;;2.9;;
51515;SDS011;37603;55.614;37.326;2023-07-20T17:51:22;4.2;;;2.7;;
51515;SDS011;37603;55.614;37.326;2023-07-20T17:57:22;5.1;;;3.2;;
51515;SDS011;37603;55.614;37.326;2023-07-20T18:03:22;6.0;;;2.9;;
51515;SDS011;37603;55.614;37.326;2023-07-20T18:09:21;7.2;;;2.9;;
51515;SDS011;37603;55.614;37.326;2023-07-20T18:15:21;7.8;;;2.5;;
51515;SDS011;37603;55.614;37.326;2023-07-20T18:21:20;7.0;;;2.9;;
51515;SDS011;37603;55.614;37.326;2023-07-20T18:27:20;7.2;;;3.4;;
51515;SDS011;37603;55.614;37.326;2023-07-20T18:33:19;6.1;;;3.5;;
51515;SDS011;37603;55.614;37.326;2023-07-20T18:39:19;7.2;;;3.1;;
51515;SDS011;37603;55.614;37.326;2023-07-20T18:45:19;5.8;;;3.6;;
51515;SDS011;37603;55.614;37.326;2023-07-20T18:51:18;6.7;;;3.1;;
51515;SDS011;37603;55.614;37.326;2023-07-20T18:57:18;6.2;;;3.6;;
51515;SDS011;37603;55.614;37.326;2023-07-20T19:03:17;7.0;;;3.6;;
51515;SDS011;37603;55.614;37.326;2023-07-20T19:09:16;5.9;;;3.7;;
51515;SDS011;37603;55.614;37.326;2023-07-20T19:15:16;8.9;;;3.8;;
51515;SDS011;37603;55.614;37.326;2023-07-20T19:21:15;7.1;;;4.0;;
51515;SDS011;37603;55.614;37.326;2023-07-20T19:27:15;7.5;;;4.0;;
51515;SDS011;37603;55.614;37.326;2023-07-20T19:33:14;8.9;;;4.8;;
51515;SDS011;37603;55.614;37.326;2023-07-20T19:39:14;8.6;;;3.9;;
51515;SDS011;37603;55.614;37.326;2023-07-20T19:45:13;7.6;;;4.3;;
51515;SDS011;37603;55.614;37.326;2023-07-20T19:51:12;13.1;;;4.8;;
51515;SDS011;37603;55.614;37.326;2023-07-20T19:57:12;10.9;;;4.6;;
51515;SDS011;37603;55.614;37.326;2023-07-20T20:03:11;11.6;;;5.0;;
51515;SDS011;37603;55.614;37.326;2023-07-20T20:09:11;8.7;;;4.7;;
51515;SDS011;37603;55.614;37.326;2023-07-20T20:15:10;9.1;;;4.2;;
51515;SDS011;37603;55.614;37.326;2023-07-20T20:21:10;7.7;;;4.1;;
51515;SDS011;37603;55.614;37.326;2023-07-20T20:27:09;7.5;;;3.7;;
51515;SDS011;37603;55.614;37.326;2023-07-20T20:33:08;8.2;;;4.0;;
51515;SDS011;37603;55.614;37.326;2023-07-20T20:39:08;9.0;;;3.7;;
51515;SDS011;37603;55.614;37.326;2023-07-20T20:45:07;6.7;;;3.5;;
51515;SDS011;37603;55.614;37.326;2023-07-20T20:51:06;8.2;;;3.8;;
51515;SDS011;37603;55.614;37.326;2023-07-20T20:57:06;7.4;;;3.7;;
51515;SDS011;37603;55.614;37.326;2023-07-20T21:03:05;6.6;;;3.5;;
51515;SDS011;37603;55.614;37.326;2023-07-20T21:09:04;6.7;;;3.7;;
51515;SDS011;37603;55.614;37.326;2023-07-20T21:15:04;8.1;;;3.7;;
51515;SDS011;37603;55.614;37.326;2023-07-20T21:21:03;7.2;;;3.7;;
51515;SDS011;37603;55.614;37.326;2023-07-20T21:39:01;7.5;;;4.1;;
51515;SDS011;37603;55.614;37.326;2023-07-20T21:45:00;6.9;;;3.7;;
51515;SDS011;37603;55.614;37.326;2023-07-20T21:51:00;6.6;;;4.1;;
51515;SDS011;37603;55.614;37.326;2023-07-20T21:56:59;7.1;;;4.2;;
51515;SDS011;37603;55.614;37.326;2023-07-20T22:02:59;8.1;;;4.0;;
51515;SDS011;37603;55.614;37.326;2023-07-20T22:08:58;7.3;;;4.5;;
51515;SDS011;37603;55.614;37.326;2023-07-20T22:14:57;9.9;;;3.9;;
51515;SDS011;37603;55.614;37.326;2023-07-20T22:20:56;6.6;;;3.8;;
51515;SDS011;37603;55.614;37.326;2023-07-20T22:26:56;5.9;;;3.5;;
51515;SDS011;37603;55.614;37.326;2023-07-20T22:38:54;8.4;;;4.6;;
51515;SDS011;37603;55.614;37.326;2023-07-20T22:44:54;6.1;;;3.7;;
51515;SDS011;37603;55.614;37.326;2023-07-20T22:50:53;8.9;;;4.1;;
51515;SDS011;37603;55.614;37.326;2023-07-20T22:56:52;7.7;;;3.8;;
51515;SDS011;37603;55.614;37.326;2023-07-20T23:02:53;7.4;;;3.7;;
51515;SDS011;37603;55.614;37.326;2023-07-20T23:08:51;8.6;;;4.0;;
51515;SDS011;37603;55.614;37.326;2023-07-20T23:14:50;8.0;;;4.1;;
51515;SDS011;37603;55.614;37.326;2023-07-20T23:20:49;6.8;;;3.7;;
51515;SDS011;37603;55.614;37.326;2023-07-20T23:26:49;6.4;;;3.7;;
51515;SDS011;37603;55.614;37.326;2023-07-20T23:32:48;7.0;;;3.9;;
51515;SDS011;37603;55.614;37.326;2023-07-20T23:38:47;6.1;;;3.7;;
51515;SDS011;37603;55.614;37.326;2023-07-20T23:44:46;5.9;;;3.9;;
51515;SDS011;37603;55.614;37.326;2023-07-20T23:50:46;6.7;;;4.1;;
51515;SDS011;37603;55.614;37.326;2023-07-20T23:56:45;9.3;;;4.3;;
